Time;durP1;ratioP1;P1;durP2;ratioP2;P2;SDS_P1;SDS_P2;PMS_P1;PMS_P2;Temp;Humidity;BMP_temperature;BMP_pressure;BME280_temperature;BME280_humidity;BME280_pressure;Samples;Min_cycle;Max_cycle;Signal;HPM_P1;HPM_P2
2021/06/26 00:01:38;;;;;;;21.07;14.20;;;17.40;99.90;;;;;;5060161;28;20191;-51
2021/06/26 00:04:06;;;;;;;20.20;14.03;;;17.50;99.90;;;;;;5062791;28;20553;-51
2021/06/26 00:06:35;;;;;;;22.20;14.00;;;17.40;99.90;;;;;;5062155;28;20262;-50
2021/06/26 00:09:03;;;;;;;22.23;14.17;;;17.50;99.90;;;;;;5058753;28;20293;-52
2021/06/26 00:11:30;;;;;;;21.13;14.77;;;17.40;99.90;;;;;;5059604;28;20290;-52
2021/06/26 00:13:58;;;;;;;20.73;14.43;;;17.40;99.90;;;;;;5060746;28;20654;-52
2021/06/26 00:16:25;;;;;;;21.03;15.27;;;17.40;99.90;;;;;;5064978;28;20257;-52
2021/06/26 00:18:52;;;;;;;21.07;14.63;;;17.40;99.90;;;;;;5059865;28;20209;-52
2021/06/26 00:21:19;;;;;;;22.27;15.20;;;17.40;99.90;;;;;;5055819;28;20217;-52
2021/06/26 00:23:45;;;;;;;23.27;14.80;;;17.20;99.90;;;;;;5054919;28;20878;-52
2021/06/26 00:26:16;;;;;;;21.30;14.77;;;17.20;99.90;;;;;;5053201;28;20204;-51
2021/06/26 00:28:42;;;;;;;18.67;14.43;;;17.20;99.90;;;;;;5060235;28;20954;-52
2021/06/26 00:31:09;;;;;;;23.10;14.30;;;17.20;99.90;;;;;;5062447;28;20604;-52
2021/06/26 00:33:37;;;;;;;22.73;15.13;;;17.20;99.90;;;;;;5056503;28;20196;-52
2021/06/26 00:36:04;;;;;;;19.70;14.50;;;17.20;99.90;;;;;;5062531;28;20300;-52
2021/06/26 00:38:31;;;;;;;18.67;14.33;;;17.20;99.90;;;;;;5059450;28;20244;-50
2021/06/26 00:40:58;;;;;;;21.73;15.87;;;17.20;99.90;;;;;;5062912;28;20639;-51
2021/06/26 00:43:25;;;;;;;22.33;15.73;;;17.10;99.90;;;;;;5064822;28;20825;-51
2021/06/26 00:45:51;;;;;;;20.93;14.63;;;17.10;99.90;;;;;;5060232;28;20685;-51
2021/06/26 00:48:18;;;;;;;22.70;15.43;;;17.10;99.90;;;;;;5060022;28;20634;-52
2021/06/26 00:50:47;;;;;;;25.83;15.83;;;17.10;99.90;;;;;;5061216;28;20264;-52
2021/06/26 00:53:14;;;;;;;21.40;14.80;;;17.10;99.90;;;;;;5060564;28;21164;-51
2021/06/26 00:55:40;;;;;;;22.93;15.27;;;17.10;99.90;;;;;;5058227;28;20323;-51
2021/06/26 00:58:07;;;;;;;19.43;14.73;;;17.10;99.90;;;;;;5059894;28;20269;-52
2021/06/26 01:00:34;;;;;;;20.63;15.03;;;17.10;99.90;;;;;;5060037;28;20292;-52
2021/06/26 01:03:02;;;;;;;23.13;16.10;;;17.10;99.90;;;;;;5061444;28;20204;-52
2021/06/26 01:05:29;;;;;;;20.50;15.17;;;17.00;99.90;;;;;;5062028;28;20217;-52
2021/06/26 01:07:56;;;;;;;23.87;15.93;;;17.10;99.90;;;;;;5058099;28;20293;-52
2021/06/26 01:10:23;;;;;;;24.83;15.87;;;17.10;99.90;;;;;;5058683;28;20217;-52
2021/06/26 01:12:50;;;;;;;19.77;14.70;;;17.10;99.90;;;;;;5061398;28;20201;-52
2021/06/26 01:15:18;;;;;;;24.00;16.10;;;17.10;99.90;;;;;;5062557;28;20235;-50
2021/06/26 01:17:46;;;;;;;24.23;15.33;;;17.00;99.90;;;;;;5064313;28;20334;-50
2021/06/26 01:20:14;;;;;;;23.33;16.90;;;17.00;99.90;;;;;;5058575;28;20447;-51
2021/06/26 01:22:45;;;;;;;22.23;16.03;;;17.00;99.90;;;;;;5060428;28;20189;-51
2021/06/26 01:25:14;;;;;;;21.33;15.37;;;17.00;99.90;;;;;;5063392;28;20197;-51
2021/06/26 01:27:42;;;;;;;23.37;16.37;;;17.00;99.90;;;;;;5062213;28;20583;-51
2021/06/26 01:30:10;;;;;;;21.00;15.50;;;17.10;99.90;;;;;;5059718;28;20609;-51
2021/06/26 01:32:38;;;;;;;23.27;16.30;;;17.00;99.90;;;;;;5064378;28;20232;-52
2021/06/26 01:35:07;;;;;;;23.83;15.77;;;16.90;99.90;;;;;;5061111;28;20201;-52
2021/06/26 01:37:37;;;;;;;26.37;16.30;;;16.80;99.90;;;;;;5062745;28;20300;-52
2021/06/26 01:40:05;;;;;;;23.37;16.23;;;16.90;99.90;;;;;;5061864;28;20403;-52
2021/06/26 01:42:32;;;;;;;25.43;16.07;;;17.00;99.90;;;;;;5064879;28;20244;-52
2021/06/26 01:44:59;;;;;;;24.00;16.30;;;17.00;99.90;;;;;;5058915;28;20234;-52
2021/06/26 01:47:26;;;;;;;25.57;15.97;;;16.90;99.90;;;;;;5061760;28;20554;-52
2021/06/26 01:49:53;;;;;;;24.67;17.17;;;16.90;99.90;;;;;;5068582;28;20847;-51
2021/06/26 01:52:20;;;;;;;23.77;17.13;;;16.80;99.90;;;;;;5068418;28;20648;-52
2021/06/26 01:54:47;;;;;;;24.30;17.00;;;16.80;99.90;;;;;;5067949;28;20231;-52
2021/06/26 01:57:13;;;;;;;25.20;17.03;;;16.90;99.90;;;;;;5068137;28;20627;-52
2021/06/26 01:59:40;;;;;;;22.10;16.73;;;16.90;99.90;;;;;;5065806;28;20208;-51
2021/06/26 02:02:07;;;;;;;24.73;16.60;;;16.90;99.90;;;;;;5064134;28;20688;-51
2021/06/26 02:04:34;;;;;;;24.57;16.33;;;16.90;99.90;;;;;;5066445;28;20549;-51
2021/06/26 02:07:01;;;;;;;25.93;17.60;;;16.90;99.90;;;;;;5066761;28;20420;-51
2021/06/26 02:09:28;;;;;;;26.33;17.07;;;17.00;99.90;;;;;;5065999;28;20292;-51
2021/06/26 02:11:55;;;;;;;25.23;17.50;;;16.80;99.90;;;;;;5059242;28;20258;-52
2021/06/26 02:14:22;;;;;;;24.37;17.00;;;16.80;99.90;;;;;;5068570;28;20329;-52
2021/06/26 02:16:49;;;;;;;19.77;16.27;;;16.90;99.90;;;;;;5066995;28;20700;-52
2021/06/26 02:19:16;;;;;;;24.50;17.17;;;16.90;99.90;;;;;;5066434;28;20229;-52
2021/06/26 02:21:43;;;;;;;20.80;15.27;;;16.90;99.90;;;;;;5062389;28;20227;-51
2021/06/26 02:24:10;;;;;;;22.97;15.50;;;16.90;99.90;;;;;;5066033;28;20300;-52
2021/06/26 02:26:36;;;;;;;25.33;16.87;;;16.90;99.90;;;;;;5057519;28;20296;-51
2021/06/26 02:29:03;;;;;;;23.50;17.30;;;16.80;99.90;;;;;;5067828;28;20303;-51
2021/06/26 02:31:30;;;;;;;20.17;15.60;;;16.90;99.90;;;;;;5066641;28;20308;-51
2021/06/26 02:33:57;;;;;;;25.27;17.30;;;16.80;99.90;;;;;;5068858;28;20212;-52
2021/06/26 02:36:24;;;;;;;22.37;16.23;;;16.90;99.90;;;;;;5068589;28;20261;-51
2021/06/26 02:38:51;;;;;;;26.50;17.40;;;16.90;99.90;;;;;;5069687;28;20221;-52
2021/06/26 02:41:21;;;;;;;23.27;16.80;;;16.80;99.90;;;;;;5062521;28;20621;-52
2021/06/26 02:43:49;;;;;;;24.93;16.33;;;16.90;99.90;;;;;;5066051;28;20273;-52
2021/06/26 02:46:16;;;;;;;22.10;15.83;;;16.90;99.90;;;;;;5066101;28;20274;-52
2021/06/26 02:48:43;;;;;;;25.63;17.17;;;17.00;99.90;;;;;;5068678;28;20201;-52
2021/06/26 02:51:10;;;;;;;24.40;17.30;;;16.90;99.90;;;;;;5065622;28;20281;-51
2021/06/26 02:53:37;;;;;;;21.33;16.43;;;16.90;99.90;;;;;;5065625;28;20276;-51
2021/06/26 02:56:04;;;;;;;25.23;17.20;;;16.90;99.90;;;;;;5066502;28;20320;-51
2021/06/26 02:58:31;;;;;;;25.50;16.97;;;16.90;99.90;;;;;;5065837;28;20231;-51
2021/06/26 03:00:58;;;;;;;25.67;17.30;;;16.90;99.90;;;;;;5065037;28;20284;-51
2021/06/26 03:03:25;;;;;;;23.03;16.87;;;16.90;99.90;;;;;;5067593;28;20255;-51
2021/06/26 03:05:52;;;;;;;24.03;15.33;;;16.90;99.90;;;;;;5066165;28;20241;-51
2021/06/26 03:08:19;;;;;;;24.97;17.33;;;16.90;99.90;;;;;;5064936;28;20660;-51
2021/06/26 03:10:46;;;;;;;24.27;17.87;;;16.90;99.90;;;;;;5063407;28;20611;-51
2021/06/26 03:13:15;;;;;;;22.77;17.20;;;16.90;99.90;;;;;;5067586;28;20388;-52
2021/06/26 03:15:46;;;;;;;24.53;16.77;;;17.00;99.90;;;;;;5065136;28;20205;-52
2021/06/26 03:18:13;;;;;;;25.37;17.27;;;16.90;99.90;;;;;;5066861;28;20326;-52
2021/06/26 03:20:40;;;;;;;27.83;16.93;;;17.00;99.90;;;;;;5061791;28;20964;-51
2021/06/26 03:23:08;;;;;;;30.73;18.40;;;17.00;99.90;;;;;;5066662;28;20422;-51
2021/06/26 03:25:35;;;;;;;23.60;16.43;;;17.00;99.90;;;;;;5063829;28;20324;-51
2021/06/26 03:28:02;;;;;;;26.27;17.47;;;17.00;99.90;;;;;;5066145;28;20283;-51
2021/06/26 03:30:29;;;;;;;24.93;17.60;;;17.00;99.90;;;;;;5061511;28;20667;-52
2021/06/26 03:32:56;;;;;;;26.17;18.13;;;16.90;99.90;;;;;;5063210;28;20294;-52
2021/06/26 03:35:23;;;;;;;26.63;18.23;;;16.90;99.90;;;;;;5064811;28;20487;-52
2021/06/26 03:37:50;;;;;;;23.13;17.57;;;17.00;99.90;;;;;;5057656;28;20301;-51
2021/06/26 03:40:17;;;;;;;23.97;17.00;;;17.00;99.90;;;;;;5061567;28;20279;-51
2021/06/26 03:42:43;;;;;;;24.47;17.87;;;16.90;99.90;;;;;;5065416;28;20861;-51
2021/06/26 03:45:11;;;;;;;28.00;18.23;;;16.90;99.90;;;;;;5063440;28;21738;-52
2021/06/26 03:47:38;;;;;;;25.83;18.17;;;16.90;99.90;;;;;;5065759;28;20289;-52
2021/06/26 03:50:06;;;;;;;27.97;19.03;;;16.90;99.90;;;;;;5057643;28;20301;-52
2021/06/26 03:52:33;;;;;;;23.93;18.40;;;16.90;99.90;;;;;;5062241;28;20634;-52
2021/06/26 03:54:59;;;;;;;25.83;17.97;;;16.80;99.90;;;;;;5066649;28;20377;-52
2021/06/26 03:57:26;;;;;;;27.97;18.30;;;16.80;99.90;;;;;;5063958;28;20277;-52
2021/06/26 03:59:53;;;;;;;27.87;19.73;;;16.80;99.90;;;;;;5065697;28;20656;-52
2021/06/26 04:02:20;;;;;;;29.07;18.97;;;16.90;99.90;;;;;;5060154;28;20392;-52
2021/06/26 04:04:47;;;;;;;28.23;18.77;;;16.90;99.90;;;;;;5066604;28;20227;-52
2021/06/26 04:07:14;;;;;;;28.13;19.57;;;16.90;99.90;;;;;;5065142;28;20290;-52
2021/06/26 04:09:41;;;;;;;26.50;18.13;;;16.90;99.90;;;;;;5062674;28;20201;-52
2021/06/26 04:12:08;;;;;;;29.50;19.57;;;16.80;99.90;;;;;;5062219;28;20330;-52
2021/06/26 04:14:35;;;;;;;26.97;18.70;;;16.80;99.90;;;;;;5063255;28;20671;-51
2021/06/26 04:17:02;;;;;;;26.37;18.80;;;16.80;99.90;;;;;;5064503;28;20241;-51
2021/06/26 04:19:29;;;;;;;32.03;20.10;;;16.90;99.90;;;;;;5057788;28;20205;-51
2021/06/26 04:21:56;;;;;;;26.10;18.53;;;16.90;99.90;;;;;;5060820;28;20596;-51
2021/06/26 04:24:22;;;;;;;25.13;18.10;;;16.80;99.90;;;;;;5062539;28;20296;-51
2021/06/26 04:26:49;;;;;;;27.17;19.30;;;16.90;99.90;;;;;;5062907;28;20252;-51
2021/06/26 04:29:20;;;;;;;27.27;18.47;;;16.90;99.90;;;;;;5062583;28;20201;-51
2021/06/26 04:31:46;;;;;;;23.93;18.30;;;16.80;99.90;;;;;;5061681;28;20285;-52
2021/06/26 04:34:13;;;;;;;23.53;16.17;;;16.80;99.90;;;;;;5060586;28;20210;-52
2021/06/26 04:36:41;;;;;;;24.30;18.40;;;16.80;99.90;;;;;;5066250;28;20680;-52
2021/06/26 04:39:09;;;;;;;24.57;17.93;;;16.90;99.90;;;;;;5063664;28;20205;-52
2021/06/26 04:41:37;;;;;;;25.70;17.77;;;16.90;99.90;;;;;;5061796;28;20302;-52
2021/06/26 04:44:05;;;;;;;27.30;17.70;;;17.00;99.90;;;;;;5062284;28;20290;-51
2021/06/26 04:46:32;;;;;;;26.03;17.50;;;16.90;99.90;;;;;;5064412;28;20690;-52
2021/06/26 04:48:59;;;;;;;25.13;17.03;;;16.90;99.90;;;;;;5062820;28;20247;-50
2021/06/26 04:51:26;;;;;;;25.43;17.07;;;16.90;99.90;;;;;;5063654;28;20237;-52
2021/06/26 04:53:53;;;;;;;26.60;17.97;;;16.90;99.90;;;;;;5062398;28;20209;-51
2021/06/26 04:56:20;;;;;;;25.20;18.07;;;16.90;99.90;;;;;;5063921;28;20726;-52
2021/06/26 04:58:47;;;;;;;29.10;18.73;;;16.90;99.90;;;;;;5060106;28;20299;-52
2021/06/26 05:01:14;;;;;;;28.60;18.73;;;16.90;99.90;;;;;;5065659;28;20585;-52
2021/06/26 05:03:41;;;;;;;30.10;18.80;;;16.90;99.90;;;;;;5062396;28;20228;-51
2021/06/26 05:06:07;;;;;;;26.70;17.83;;;16.90;99.90;;;;;;5063491;28;20255;-52
2021/06/26 05:08:34;;;;;;;26.27;17.83;;;16.90;99.90;;;;;;5063920;28;20225;-51
2021/06/26 05:11:02;;;;;;;27.17;18.67;;;17.00;99.90;;;;;;5060141;28;20211;-52
2021/06/26 05:13:30;;;;;;;23.73;17.03;;;17.00;99.90;;;;;;5059793;28;20263;-52
2021/06/26 05:15:57;;;;;;;26.83;17.70;;;17.10;99.90;;;;;;5060566;28;20210;-52
2021/06/26 05:18:27;;;;;;;26.57;18.10;;;17.10;99.90;;;;;;5072003;28;20223;-52
2021/06/26 05:20:55;;;;;;;23.80;17.97;;;17.20;99.90;;;;;;5059374;28;20283;-52
2021/06/26 05:23:23;;;;;;;25.27;18.87;;;17.10;99.90;;;;;;5066601;28;20618;-52
2021/06/26 05:25:50;;;;;;;27.50;18.63;;;17.20;99.90;;;;;;5062296;28;20556;-50
2021/06/26 05:28:17;;;;;;;27.83;18.33;;;17.20;99.90;;;;;;5064514;28;20207;-52
2021/06/26 05:30:44;;;;;;;26.13;17.73;;;17.20;99.90;;;;;;5059177;28;20256;-50
2021/06/26 05:33:12;;;;;;;26.27;17.20;;;17.20;99.90;;;;;;5062734;28;20210;-52
2021/06/26 05:35:39;;;;;;;24.33;17.50;;;17.20;99.90;;;;;;5061610;28;20649;-51
2021/06/26 05:38:05;;;;;;;25.70;18.20;;;17.30;99.90;;;;;;5063342;28;20272;-51
2021/06/26 05:40:33;;;;;;;25.13;16.20;;;17.20;99.90;;;;;;5062666;28;20229;-51
2021/06/26 05:43:00;;;;;;;25.10;16.90;;;17.20;99.90;;;;;;5064005;28;20260;-51
2021/06/26 05:45:27;;;;;;;25.17;16.90;;;17.30;99.90;;;;;;5060410;28;20671;-51
2021/06/26 05:47:54;;;;;;;23.73;15.33;;;17.30;99.90;;;;;;5064046;28;20651;-52
2021/06/26 05:50:21;;;;;;;23.37;16.67;;;17.40;99.90;;;;;;5065446;28;20239;-51
2021/06/26 05:52:53;;;;;;;22.73;16.03;;;17.30;99.90;;;;;;5059593;28;20212;-51
2021/06/26 05:55:22;;;;;;;22.87;16.87;;;17.50;99.90;;;;;;5061038;28;20198;-51
2021/06/26 05:57:49;;;;;;;26.50;18.20;;;17.50;99.90;;;;;;5065081;28;20336;-50
2021/06/26 06:00:17;;;;;;;24.30;17.30;;;17.60;99.90;;;;;;5060337;28;20288;-51
2021/06/26 06:02:45;;;;;;;24.30;17.53;;;17.60;99.90;;;;;;5061481;28;20234;-51
2021/06/26 06:05:13;;;;;;;23.03;16.37;;;17.50;99.90;;;;;;5062366;28;20284;-51
2021/06/26 06:07:41;;;;;;;23.07;15.80;;;17.50;99.90;;;;;;5063287;28;20236;-51
2021/06/26 06:10:10;;;;;;;26.07;16.37;;;17.70;99.90;;;;;;5062977;28;20314;-52
2021/06/26 06:12:38;;;;;;;22.20;16.00;;;17.70;99.90;;;;;;5064048;28;20292;-51
2021/06/26 06:15:11;;;;;;;24.37;16.57;;;17.80;99.90;;;;;;5065230;28;20223;-51
2021/06/26 06:17:39;;;;;;;23.50;17.03;;;17.80;99.90;;;;;;5069209;28;20332;-51
2021/06/26 06:20:07;;;;;;;28.33;16.70;;;17.80;99.90;;;;;;5061724;28;20286;-51
2021/06/26 06:22:34;;;;;;;22.53;16.77;;;18.00;99.90;;;;;;5063569;28;20702;-52
2021/06/26 06:25:03;;;;;;;23.33;16.77;;;18.00;99.90;;;;;;5060951;28;20290;-52
2021/06/26 06:27:29;;;;;;;22.27;15.90;;;18.10;99.90;;;;;;5058371;28;20269;-52
2021/06/26 06:29:56;;;;;;;21.90;17.03;;;18.20;99.90;;;;;;5058930;28;20230;-52
2021/06/26 06:32:23;;;;;;;23.10;17.40;;;17.90;99.90;;;;;;5063258;28;20725;-52
2021/06/26 06:34:50;;;;;;;22.60;16.77;;;18.10;99.90;;;;;;5058367;28;20322;-51
2021/06/26 06:37:17;;;;;;;25.80;16.63;;;18.20;99.90;;;;;;5059457;28;20312;-51
2021/06/26 06:39:44;;;;;;;23.53;16.83;;;18.30;99.90;;;;;;5070655;28;20489;-50
2021/06/26 06:42:11;;;;;;;22.97;15.73;;;18.20;99.90;;;;;;5057562;28;20297;-51
2021/06/26 06:44:37;;;;;;;22.43;16.50;;;18.40;99.90;;;;;;5064388;28;20251;-51
2021/06/26 06:47:04;;;;;;;20.90;16.30;;;18.50;99.90;;;;;;5066544;28;20660;-51
2021/06/26 06:49:31;;;;;;;23.07;17.30;;;18.60;99.90;;;;;;5054440;28;20729;-51
2021/06/26 06:51:58;;;;;;;19.40;15.77;;;18.60;99.90;;;;;;5059818;28;20237;-51
2021/06/26 06:54:25;;;;;;;23.33;17.03;;;18.70;99.90;;;;;;5063720;28;20226;-51
2021/06/26 06:56:52;;;;;;;21.03;16.27;;;18.70;99.90;;;;;;5061697;28;20334;-51
2021/06/26 06:59:19;;;;;;;20.27;16.23;;;18.80;99.90;;;;;;5058814;28;20270;-51
2021/06/26 07:01:46;;;;;;;22.77;16.53;;;19.00;99.90;;;;;;5064707;28;20194;-51
2021/06/26 07:04:13;;;;;;;20.13;16.13;;;19.00;99.90;;;;;;5062403;28;20244;-50
2021/06/26 07:06:39;;;;;;;19.63;15.00;;;19.00;99.90;;;;;;5066169;28;20572;-52
2021/06/26 07:09:06;;;;;;;24.27;15.73;;;19.00;99.90;;;;;;5064391;28;20277;-51
2021/06/26 07:11:33;;;;;;;20.83;14.10;;;19.30;99.90;;;;;;5062590;28;20239;-51
2021/06/26 07:14:00;;;;;;;19.23;13.90;;;19.40;99.90;;;;;;5064151;28;20295;-51
2021/06/26 07:16:27;;;;;;;18.53;13.73;;;19.50;99.90;;;;;;5064403;28;20228;-52
2021/06/26 07:18:53;;;;;;;21.40;13.93;;;19.50;99.90;;;;;;5062032;28;20223;-52
2021/06/26 07:21:22;;;;;;;17.73;13.43;;;19.70;99.90;;;;;;5059953;28;20636;-52
2021/06/26 07:23:49;;;;;;;17.57;13.70;;;20.10;99.90;;;;;;5059491;28;20706;-52
2021/06/26 07:26:16;;;;;;;19.27;14.43;;;20.20;14.20;;;;;;5064085;28;20232;-52
2021/06/26 07:28:42;;;;;;;21.13;14.23;;;20.30;1.00;;;;;;5061403;28;20278;-51
2021/06/26 07:31:10;;;;;;;20.98;15.68;;;20.40;1.00;;;;;;5062848;28;21015;-51
2021/06/26 07:33:36;;;;;;;21.87;14.70;;;20.80;1.00;;;;;;5062959;28;20207;-50
2021/06/26 07:36:04;;;;;;;19.43;14.13;;;21.50;1.00;;;;;;5062362;28;20550;-51
2021/06/26 07:38:31;;;;;;;19.27;12.93;;;21.80;1.00;;;;;;5053555;28;20246;-51
2021/06/26 07:40:58;;;;;;;16.60;12.70;;;22.30;1.00;;;;;;5058631;28;20291;-52
2021/06/26 07:43:25;;;;;;;22.10;13.93;;;23.00;1.00;;;;;;5060495;28;20253;-50
2021/06/26 07:45:53;;;;;;;17.27;12.57;;;22.90;99.90;;;;;;5065117;28;20207;-52
2021/06/26 07:48:20;;;;;;;15.87;12.33;;;22.80;99.90;;;;;;5063971;28;20210;-50
2021/06/26 07:50:51;;;;;;;17.50;12.97;;;23.50;99.90;;;;;;5063673;28;20197;-52
2021/06/26 07:53:18;;;;;;;21.07;13.47;;;23.50;20.70;;;;;;5061981;28;20227;-50
2021/06/26 07:55:53;;;;;;;18.40;12.47;;;23.60;99.90;;;;;;5061935;28;20390;-52
2021/06/26 07:58:24;;;;;;;17.87;12.87;;;23.40;1.00;;;;;;5057156;28;20310;-51
2021/06/26 08:00:52;;;;;;;16.43;11.83;;;23.90;34.40;;;;;;5060699;28;20248;-51
2021/06/26 08:03:20;;;;;;;15.63;11.50;;;24.10;1.00;;;;;;5062551;28;20278;-51
2021/06/26 08:05:49;;;;;;;19.47;12.43;;;24.10;1.00;;;;;;5065178;28;20627;-51
2021/06/26 08:08:17;;;;;;;18.07;12.93;;;24.40;1.00;;;;;;5062622;28;20254;-51
2021/06/26 08:10:44;;;;;;;16.63;12.03;;;24.50;1.00;;;;;;5061713;28;20576;-51
2021/06/26 08:13:14;;;;;;;14.93;12.03;;;23.90;1.00;;;;;;5062497;28;20199;-51
2021/06/26 08:15:42;;;;;;;15.07;11.20;;;24.40;1.00;;;;;;5064127;28;20275;-51
2021/06/26 08:18:11;;;;;;;18.17;11.90;;;25.00;99.90;;;;;;5064269;28;20629;-50
2021/06/26 08:20:39;;;;;;;16.33;12.70;;;25.40;1.00;;;;;;5063259;28;20271;-51
2021/06/26 08:23:06;;;;;;;14.43;10.47;;;24.60;99.90;;;;;;5066817;28;20560;-52
2021/06/26 08:25:33;;;;;;;14.13;10.70;;;25.50;1.00;;;;;;5058958;28;20215;-50
2021/06/26 08:28:01;;;;;;;12.43;9.97;;;25.10;1.00;;;;;;5063580;28;20204;-50
2021/06/26 08:30:28;;;;;;;14.43;11.47;;;25.00;1.00;;;;;;5057832;28;20550;-52
2021/06/26 08:32:56;;;;;;;16.77;12.87;;;25.30;1.00;;;;;;5063791;28;20326;-51
2021/06/26 08:35:23;;;;;;;14.50;10.50;;;25.20;1.00;;;;;;5064389;28;20291;-51
2021/06/26 08:37:51;;;;;;;17.03;12.27;;;26.30;1.00;;;;;;5060354;28;20248;-52
2021/06/26 08:40:19;;;;;;;16.20;10.97;;;25.70;99.90;;;;;;5061108;28;20199;-51
2021/06/26 08:42:47;;;;;;;16.83;12.03;;;25.70;1.00;;;;;;5066499;28;20249;-52
2021/06/26 08:45:17;;;;;;;14.30;11.07;;;26.40;99.90;;;;;;5067842;28;20198;-50
2021/06/26 08:47:55;;;;;;;16.40;12.20;;;26.40;99.90;;;;;;5066966;28;20226;-51
2021/06/26 08:50:24;;;;;;;13.47;10.23;;;26.10;1.00;;;;;;5062414;28;20299;-51
2021/06/26 08:52:51;;;;;;;14.63;11.00;;;26.30;1.00;;;;;;5067931;28;20523;-51
2021/06/26 08:55:18;;;;;;;11.37;9.97;;;26.80;1.00;;;;;;5066705;28;20206;-51
2021/06/26 08:57:46;;;;;;;14.93;11.30;;;27.00;1.00;;;;;;5065809;28;20265;-50
2021/06/26 09:00:20;;;;;;;13.00;10.33;;;27.30;1.00;;;;;;5067554;28;20268;-51
2021/06/26 09:02:48;;;;;;;11.97;9.97;;;26.80;99.90;;;;;;5069247;28;20288;-51
2021/06/26 09:05:29;;;;;;;15.70;10.73;;;26.90;99.90;;;;;;5063338;28;20238;-50
2021/06/26 09:08:20;;;;;;;13.97;10.27;;;26.50;99.90;;;;;;5061678;28;20623;-51
2021/06/26 09:10:51;;;;;;;12.30;10.33;;;26.50;1.00;;;;;;5062950;28;20536;-51
2021/06/26 09:13:23;;;;;;;13.80;11.03;;;26.70;1.00;;;;;;5061777;28;20211;-52
2021/06/26 09:16:11;;;;;;;14.10;10.80;;;27.10;60.50;;;;;;5067180;28;20266;-49
2021/06/26 09:18:44;;;;;;;14.57;11.60;;;27.10;1.00;;;;;;5064938;28;20310;-50
2021/06/26 09:21:17;;;;;;;13.63;11.40;;;26.90;99.90;;;;;;5057033;28;20635;-50
2021/06/26 09:23:44;;;;;;;15.20;11.13;;;27.50;1.00;;;;;;5061245;28;20619;-50
2021/06/26 09:26:12;;;;;;;17.47;11.70;;;27.60;81.30;;;;;;5058622;28;20876;-51
2021/06/26 09:28:40;;;;;;;16.53;11.80;;;27.60;39.30;;;;;;5064682;28;20203;-51
2021/06/26 09:31:17;;;;;;;13.40;11.47;;;27.10;1.00;;;;;;5064556;28;20253;-51
2021/06/26 09:33:56;;;;;;;14.40;12.03;;;26.60;1.00;;;;;;5065154;28;20203;-51
2021/06/26 09:36:28;;;;;;;16.93;12.90;;;27.20;1.00;;;;;;5066153;28;20206;-50
2021/06/26 09:38:59;;;;;;;15.97;11.73;;;27.10;1.00;;;;;;5067283;28;20234;-50
2021/06/26 09:41:27;;;;;;;13.97;9.40;;;27.20;1.00;;;;;;5060852;28;20278;-51
2021/06/26 09:44:05;;;;;;;13.67;11.10;;;27.20;1.00;;;;;;5062744;28;20200;-50
2021/06/26 09:46:32;;;;;;;12.30;10.67;;;27.70;1.00;;;;;;5064022;28;20256;-51
2021/06/26 09:48:59;;;;;;;13.80;10.17;;;26.50;1.00;;;;;;5064928;28;20585;-51
2021/06/26 09:51:28;;;;;;;14.17;11.53;;;26.30;98.80;;;;;;5058805;28;20200;-51
2021/06/26 09:54:00;;;;;;;14.10;11.23;;;26.50;1.00;;;;;;5057729;28;20234;-51
2021/06/26 09:56:45;;;;;;;15.73;11.53;;;26.40;1.00;;;;;;5062269;28;20261;-51
2021/06/26 09:59:14;;;;;;;16.33;11.83;;;26.60;99.90;;;;;;5059707;28;20301;-51
2021/06/26 10:01:43;;;;;;;18.13;11.17;;;26.60;99.90;;;;;;5059895;28;20975;-51
2021/06/26 10:04:15;;;;;;;14.03;11.00;;;26.80;99.90;;;;;;5057532;28;20427;-49
2021/06/26 10:06:43;;;;;;;13.60;10.20;;;27.10;1.00;;;;;;5060703;28;20194;-49
2021/06/26 10:09:10;;;;;;;15.70;12.20;;;26.60;1.00;;;;;;5062008;28;20235;-50
2021/06/26 10:11:39;;;;;;;15.47;11.93;;;25.90;1.00;;;;;;5065230;28;20294;-50
2021/06/26 10:14:09;;;;;;;17.40;11.83;;;25.40;40.10;;;;;;5065023;28;20669;-50
2021/06/26 10:16:38;;;;;;;13.43;10.93;;;25.60;1.00;;;;;;5068328;28;20258;-51
2021/06/26 10:19:11;;;;;;;15.00;11.20;;;25.70;99.90;;;;;;5067815;28;20666;-50
2021/06/26 10:21:39;;;;;;;16.53;11.73;;;25.50;99.90;;;;;;5066083;28;20210;-50
2021/06/26 10:24:15;;;;;;;19.60;12.90;;;25.90;1.00;;;;;;5068587;28;20211;-50
2021/06/26 10:26:43;;;;;;;17.67;10.80;;;24.90;1.00;;;;;;5066083;28;20600;-51
2021/06/26 10:29:13;;;;;;;13.87;11.23;;;25.60;1.00;;;;;;5064457;28;20212;-51
2021/06/26 10:31:45;;;;;;;19.00;13.93;;;25.70;99.90;;;;;;5063765;28;20837;-50
2021/06/26 10:34:16;;;;;;;16.40;11.73;;;25.60;99.90;;;;;;5067083;28;20205;-50
2021/06/26 10:36:56;;;;;;;14.67;11.87;;;25.70;1.00;;;;;;5067395;28;20277;-50
2021/06/26 10:39:32;;;;;;;15.50;11.03;;;26.10;1.00;;;;;;5068902;28;20215;-51
2021/06/26 10:42:09;;;;;;;13.23;10.80;;;27.10;1.00;;;;;;5068350;28;20575;-51
2021/06/26 10:44:53;;;;;;;13.33;9.73;;;27.30;1.00;;;;;;5067560;28;20646;-50
2021/06/26 10:47:36;;;;;;;13.67;10.83;;;27.00;99.90;;;;;;5065820;28;20201;-51
2021/06/26 10:50:13;;;;;;;15.57;11.90;;;26.50;1.00;;;;;;5063628;28;20207;-51
2021/06/26 10:52:53;;;;;;;17.17;12.43;;;25.80;1.00;;;;;;5061470;28;20298;-51
2021/06/26 10:55:31;;;;;;;13.43;10.30;;;25.50;1.00;;;;;;5063419;28;20618;-51
2021/06/26 10:58:00;;;;;;;12.67;10.47;;;25.40;1.00;;;;;;5063779;28;20258;-50
2021/06/26 11:00:34;;;;;;;13.97;10.67;;;25.00;1.00;;;;;;5066224;28;20532;-51
2021/06/26 11:03:03;;;;;;;13.03;10.30;;;25.00;1.00;;;;;;5067780;28;20279;-50
2021/06/26 11:05:37;;;;;;;13.77;10.07;;;24.70;1.00;;;;;;5065454;28;20568;-51
2021/06/26 11:08:19;;;;;;;10.73;8.63;;;24.70;99.90;;;;;;5068301;28;20226;-51
2021/06/26 11:10:57;;;;;;;9.83;7.43;;;24.70;1.00;;;;;;5064778;28;20210;-52
2021/06/26 11:13:27;;;;;;;10.13;8.03;;;25.40;1.00;;;;;;5064498;28;20243;-49
2021/06/26 11:16:06;;;;;;;10.73;7.40;;;25.70;1.00;;;;;;5060992;28;20234;-50
2021/06/26 11:18:33;;;;;;;9.40;8.30;;;25.70;1.00;;;;;;5056003;28;20237;-51
2021/06/26 11:21:02;;;;;;;9.53;7.97;;;25.50;1.00;;;;;;5065062;28;20253;-51
2021/06/26 11:23:29;;;;;;;11.77;9.00;;;25.30;99.90;;;;;;5059557;28;20265;-50
2021/06/26 11:26:04;;;;;;;11.13;7.97;;;25.40;99.90;;;;;;5063559;28;20234;-50
2021/06/26 11:28:41;;;;;;;13.27;10.47;;;25.20;99.90;;;;;;5064983;28;20195;-50
2021/06/26 11:31:08;;;;;;;13.40;9.43;;;25.40;99.90;;;;;;5058536;28;20289;-51
2021/06/26 11:33:37;;;;;;;10.70;7.97;;;25.90;1.00;;;;;;5061649;28;20600;-51
2021/06/26 11:36:09;;;;;;;10.37;8.80;;;26.90;1.00;;;;;;5059531;28;20297;-49
2021/06/26 11:38:36;;;;;;;14.53;10.83;;;27.70;1.00;;;;;;5059499;28;20351;-51
2021/06/26 11:41:08;;;;;;;11.67;8.97;;;27.30;99.90;;;;;;5058244;28;20290;-49
2021/06/26 11:43:37;;;;;;;11.53;9.50;;;28.40;1.00;;;;;;5058990;28;20297;-50
2021/06/26 11:46:07;;;;;;;11.47;7.50;;;27.90;1.00;;;;;;5060117;28;20193;-50
2021/06/26 11:48:33;;;;;;;16.87;10.90;;;29.10;99.90;;;;;;5063033;28;20619;-50
2021/06/26 11:51:06;;;;;;;12.23;9.87;;;28.60;1.00;;;;;;5059688;28;20193;-50
2021/06/26 11:53:37;;;;;;;19.40;13.67;;;28.70;1.00;;;;;;5062037;28;20288;-51
2021/06/26 11:56:05;;;;;;;14.60;11.90;;;28.00;1.00;;;;;;5061147;28;20276;-49
2021/06/26 11:58:52;;;;;;;12.90;9.60;;;28.90;99.90;;;;;;5062664;28;20287;-51
2021/06/26 12:01:32;;;;;;;16.40;12.70;;;29.50;1.00;;;;;;5061962;28;20249;-50
2021/06/26 12:04:03;;;;;;;12.50;9.37;;;28.50;99.90;;;;;;5063039;28;20275;-50
2021/06/26 12:06:32;;;;;;;11.20;9.97;;;29.00;1.00;;;;;;5064035;28;20222;-51
2021/06/26 12:08:59;;;;;;;10.17;7.57;;;29.70;1.00;;;;;;5063693;28;20667;-50
2021/06/26 12:11:29;;;;;;;12.23;8.80;;;30.00;1.00;;;;;;5062808;28;20241;-50
2021/06/26 12:14:02;;;;;;;14.38;8.75;;;30.90;99.90;;;;;;5064972;28;20284;-51
2021/06/26 12:16:34;;;;;;;12.77;9.43;;;31.00;99.90;;;;;;5063670;28;20659;-51
2021/06/26 12:19:08;;;;;;;11.25;8.02;;;30.30;1.00;;;;;;5062333;28;20243;-50
2021/06/26 12:21:44;;;;;;;8.17;7.37;;;30.30;1.00;;;;;;5065464;28;20257;-51
2021/06/26 12:24:23;;;;;;;11.87;9.57;;;29.80;1.00;;;;;;5055818;28;20303;-51
2021/06/26 12:27:00;;;;;;;15.73;10.97;;;29.50;1.00;;;;;;5060401;28;20310;-49
2021/06/26 12:29:27;;;;;;;12.33;11.00;;;28.60;1.00;;;;;;5063763;28;20233;-51
2021/06/26 12:31:54;;;;;;;13.97;9.33;;;27.70;99.90;;;;;;5059016;28;20207;-51
2021/06/26 12:34:21;;;;;;;13.23;9.00;;;28.60;1.00;;;;;;5063228;28;20527;-49
2021/06/26 12:37:06;;;;;;;13.40;10.90;;;28.90;99.90;;;;;;5068702;28;20383;-49
2021/06/26 12:39:34;;;;;;;11.80;10.17;;;27.20;99.90;;;;;;5064773;28;20302;-50